Galt, California
Current Conditions -  °F | °C
As of 3:45 AM on Friday 31 Oct 2014 (Local Time) from KMHR Reporting Station
Broken Clouds Broken Clouds  
Wind Chill: 57°   Ceiling: 12000
Heat Index: 57°   Visibility: 10mi
Dew Point: 57°   Wind: 7mph
Humidity: 100%   Direction: 130°SE
Pressure: 29.9"   Gusts: NA
Location:  38.25°N, 121.3°W
Report Text: KMHR 311045Z 13006KT 10SM FEW015 BKN120 14/14 A2990
Loading
Personal Weather Stations






























Interactive Weather Map
Tropical Storm Tracking
New forecast layout! Learn more

10-Day Weather Forecast

Advertisements
Track Severe Weather on mobile